createdAt,value
2018-09-14T00:04:33.137Z,48.6
2018-09-14T00:09:32.323Z,48.6
2018-09-14T00:14:31.446Z,48.6
2018-09-14T00:19:30.714Z,48.6
2018-09-14T00:24:29.989Z,48.6
2018-09-14T00:29:29.041Z,48.6
2018-09-14T00:34:28.361Z,48.6
2018-09-14T00:39:27.513Z,48.7
2018-09-14T00:44:26.844Z,48.7
2018-09-14T00:49:25.734Z,48.7
2018-09-14T00:54:25.091Z,48.6
2018-09-14T00:59:24.498Z,48.6
2018-09-14T01:04:23.777Z,48.6
2018-09-14T01:09:23.342Z,48.6
2018-09-14T01:14:22.747Z,48.6
2018-09-14T01:19:21.953Z,48.6
2018-09-14T01:24:21.248Z,48.6
2018-09-14T01:29:20.667Z,48.7
2018-09-14T01:34:20.414Z,48.6
2018-09-14T01:39:19.817Z,48.7
2018-09-14T01:44:19.179Z,48.6
2018-09-14T01:49:18.685Z,48.6
2018-09-14T01:54:17.851Z,48.6
2018-09-14T01:59:17.273Z,48.6
2018-09-14T02:04:16.649Z,48.6
2018-09-14T02:09:16.146Z,48.6
2018-09-14T02:14:15.565Z,48.6
2018-09-14T02:19:14.891Z,48.6
2018-09-14T02:24:14.440Z,48.6
2018-09-14T02:29:13.725Z,48.6
2018-09-14T02:34:13.254Z,48.6
2018-09-14T02:39:12.620Z,48.7
2018-09-14T02:44:11.617Z,48.7
2018-09-14T02:49:10.893Z,48.7
2018-09-14T02:54:10.279Z,48.6
2018-09-14T02:59:09.609Z,48.6
2018-09-14T03:04:08.855Z,48.6
2018-09-14T03:09:08.234Z,48.7
2018-09-14T03:14:07.573Z,48.7
2018-09-14T03:19:06.889Z,48.7
2018-09-14T03:24:06.156Z,48.7
2018-09-14T03:29:05.653Z,48.7
2018-09-14T03:34:05.152Z,48.7
2018-09-14T03:39:04.667Z,48.7
2018-09-14T03:44:03.912Z,48.7
2018-09-14T03:49:03.003Z,48.7
2018-09-14T03:54:02.199Z,48.7
2018-09-14T03:59:01.532Z,48.7
2018-09-14T04:04:01.119Z,48.7
2018-09-14T04:09:00.469Z,48.7
2018-09-14T04:13:59.773Z,48.7
2018-09-14T04:18:58.797Z,48.7
2018-09-14T04:23:58.429Z,48.7
2018-09-14T04:28:58.025Z,48.7
2018-09-14T04:33:57.344Z,48.7
2018-09-14T04:38:56.566Z,48.7
2018-09-14T04:43:55.593Z,48.7
2018-09-14T04:48:54.876Z,48.7
2018-09-14T04:53:54.216Z,48.7
2018-09-14T04:58:53.610Z,48.6
2018-09-14T05:03:52.949Z,48.6
2018-09-14T05:08:52.514Z,48.6
2018-09-14T05:13:52.028Z,48.6
2018-09-14T05:18:51.478Z,48.6
2018-09-14T05:23:51.393Z,48.6
2018-09-14T05:28:50.963Z,48.6
2018-09-14T05:33:50.222Z,48.7
2018-09-14T05:38:49.561Z,48.7
2018-09-14T05:43:49.152Z,48.7
2018-09-14T05:48:48.595Z,48.8
2018-09-14T05:53:47.958Z,48.8
2018-09-14T05:58:47.545Z,48.8
2018-09-14T06:03:47.359Z,48.8
2018-09-14T06:08:46.824Z,48.9
2018-09-14T06:13:46.528Z,48.9
2018-09-14T06:18:46.236Z,48.9
2018-09-14T06:23:45.563Z,49
2018-09-14T06:28:45.142Z,49
2018-09-14T06:33:44.898Z,49.1
2018-09-14T06:38:44.450Z,49.1
2018-09-14T06:43:44.165Z,49.2
2018-09-14T06:48:43.660Z,49.3
2018-09-14T06:53:43.145Z,49.4
2018-09-14T06:58:42.733Z,49.4
2018-09-14T07:03:42.202Z,49.5
2018-09-14T07:08:41.994Z,49.5
2018-09-14T07:13:41.552Z,49.5
2018-09-14T07:18:41.012Z,49.6
2018-09-14T07:23:40.493Z,49.7
2018-09-14T07:28:40.260Z,49.7
2018-09-14T07:33:39.664Z,49.8
2018-09-14T07:38:39.101Z,49.8
2018-09-14T07:43:38.573Z,49.9
2018-09-14T07:48:38.054Z,49.9
2018-09-14T07:53:37.597Z,50
2018-09-14T07:58:37.165Z,50
2018-09-14T08:03:36.564Z,50.1
2018-09-14T08:08:35.841Z,50.1
2018-09-14T08:13:35.449Z,50.2
2018-09-14T08:18:35.052Z,50.2
2018-09-14T08:23:34.876Z,50.3
2018-09-14T08:28:34.445Z,50.3
2018-09-14T08:33:34.206Z,50.4
2018-09-14T08:38:33.789Z,50.4
2018-09-14T08:43:33.309Z,50.5
2018-09-14T08:48:32.975Z,50.5
2018-09-14T08:53:32.764Z,50.6
2018-09-14T08:58:32.724Z,50.6
2018-09-14T09:03:32.216Z,50.6
2018-09-14T09:08:32.073Z,50.6
2018-09-14T09:13:31.712Z,50.7
2018-09-14T09:18:31.272Z,50.7
2018-09-14T09:23:31.105Z,50.7
2018-09-14T09:28:30.730Z,50.7
2018-09-14T09:33:30.605Z,50.7
2018-09-14T09:38:30.292Z,50.8
2018-09-14T09:43:30.437Z,50.8
2018-09-14T09:48:30.011Z,50.9
2018-09-14T09:53:29.454Z,50.8
2018-09-14T09:58:28.985Z,50.8
2018-09-14T10:03:28.705Z,50.9
2018-09-14T10:08:28.436Z,50.8
2018-09-14T10:13:28.088Z,50.9
2018-09-14T10:18:27.883Z,50.9
2018-09-14T10:23:27.433Z,50.8
2018-09-14T10:28:26.963Z,50.9
2018-09-14T10:33:26.879Z,50.9
2018-09-14T10:38:26.737Z,50.9
2018-09-14T10:43:26.567Z,50.9
2018-09-14T10:48:26.164Z,50.9
2018-09-14T10:53:26.497Z,50.9
2018-09-14T10:58:26.411Z,50.9
2018-09-14T11:03:26.055Z,50.9
2018-09-14T11:08:25.785Z,50.9
2018-09-14T11:13:25.654Z,50.9
2018-09-14T11:18:25.399Z,50.9
2018-09-14T11:23:25.117Z,50.9
2018-09-14T11:28:24.353Z,50.9
2018-09-14T11:33:24.171Z,50.9
2018-09-14T11:38:24.216Z,50.9
2018-09-14T11:43:24.315Z,50.9
2018-09-14T11:48:23.953Z,50.8
2018-09-14T11:53:23.577Z,50.8
2018-09-14T11:58:23.544Z,50.8
2018-09-14T12:03:23.440Z,50.8
2018-09-14T12:08:23.441Z,50.8
2018-09-14T12:13:23.416Z,50.8
2018-09-14T12:18:23.407Z,50.8
2018-09-14T12:23:23.283Z,50.8
2018-09-14T12:28:23.243Z,50.8
2018-09-14T12:33:23.917Z,50.7
2018-09-14T12:38:23.707Z,50.7
2018-09-14T12:43:23.690Z,50.7
2018-09-14T12:48:23.463Z,50.6
2018-09-14T12:53:23.503Z,50.7
2018-09-14T12:58:23.456Z,50.7
2018-09-14T13:03:23.160Z,50.5
2018-09-14T13:08:22.812Z,50.5
2018-09-14T13:13:22.496Z,50.4
2018-09-14T13:18:22.890Z,50.5
2018-09-14T13:23:22.583Z,50.5
2018-09-14T13:28:22.559Z,50.5
2018-09-14T13:33:22.712Z,50.4
2018-09-14T13:38:22.421Z,50.4
2018-09-14T13:43:22.190Z,50.3
2018-09-14T13:48:21.959Z,50.3
2018-09-14T13:53:21.869Z,50.3
2018-09-14T13:58:21.649Z,50.2
2018-09-14T14:03:21.422Z,50.2
2018-09-14T14:08:21.321Z,50.2
2018-09-14T14:13:20.775Z,50.1
2018-09-14T14:18:20.492Z,50.1
2018-09-14T14:23:19.705Z,50.1
2018-09-14T14:28:19.653Z,50.1
2018-09-14T14:33:19.417Z,50.1
2018-09-14T14:38:19.232Z,50
2018-09-14T14:43:19.387Z,49.9
2018-09-14T14:48:19.060Z,49.9
2018-09-14T14:53:19.314Z,49.8
2018-09-14T14:58:19.663Z,49.7
2018-09-14T15:03:19.276Z,49.7
2018-09-14T15:08:21.160Z,49.6
2018-09-14T15:13:24.449Z,49.6
2018-09-14T15:18:23.776Z,49.5
2018-09-14T15:23:23.734Z,49.6
2018-09-14T15:28:23.411Z,49.6
2018-09-14T15:33:23.149Z,49.5
2018-09-14T15:38:23.865Z,49.4
2018-09-14T15:43:23.688Z,49.4
2018-09-14T15:48:23.643Z,49.3
2018-09-14T15:53:23.648Z,49.3
2018-09-14T15:58:23.494Z,49.2
2018-09-14T16:03:23.539Z,49.2
2018-09-14T16:08:23.686Z,49.1
2018-09-14T16:13:23.547Z,49.1
2018-09-14T16:18:22.798Z,49.1
2018-09-14T16:28:27.973Z,49
2018-09-14T16:33:27.987Z,49
2018-09-14T16:38:27.873Z,49
2018-09-14T16:43:27.793Z,48.9
2018-09-14T16:48:27.641Z,48.8
2018-09-14T16:53:27.736Z,48.8
2018-09-14T16:58:27.562Z,48.7
2018-09-14T17:03:29.818Z,48.6
2018-09-14T17:08:32.474Z,48.7
2018-09-14T17:13:34.540Z,48.8
2018-09-14T17:18:34.408Z,48.8
2018-09-14T17:23:35.178Z,48.8
2018-09-14T17:28:36.094Z,48.8
2018-09-14T17:33:35.829Z,48.7
2018-09-14T17:38:35.905Z,48.7
2018-09-14T17:43:35.795Z,48.6
2018-09-14T17:48:35.849Z,48.6
2018-09-14T17:53:36.015Z,48.5
2018-09-14T17:58:36.005Z,48.4
2018-09-14T18:03:36.196Z,48.4
2018-09-14T18:08:36.079Z,48.6
2018-09-14T18:13:35.963Z,48.7
2018-09-14T18:18:35.961Z,48.8
2018-09-14T18:23:35.869Z,48.8
2018-09-14T18:28:35.786Z,48.8
2018-09-14T18:33:35.673Z,48.7
2018-09-14T18:38:35.390Z,48.7
2018-09-14T18:43:35.358Z,48.6
2018-09-14T18:48:35.357Z,48.5
2018-09-14T18:53:35.314Z,48.5
2018-09-14T18:58:35.118Z,48.4
2018-09-14T19:03:34.957Z,48.5
2018-09-14T19:08:35.361Z,48.7
2018-09-14T19:13:35.313Z,48.7
2018-09-14T19:18:35.295Z,48.7
2018-09-14T19:23:34.939Z,48.7
2018-09-14T19:28:34.872Z,48.7
2018-09-14T19:33:34.595Z,48.6
2018-09-14T19:38:34.702Z,48.6
2018-09-14T19:43:34.696Z,48.6
2018-09-14T19:48:34.460Z,48.6
2018-09-14T19:53:34.262Z,48.5
2018-09-14T19:58:34.093Z,48.5
2018-09-14T20:03:33.993Z,48.5
2018-09-14T20:08:34.127Z,48.6
2018-09-14T20:13:33.922Z,48.5
2018-09-14T20:18:33.629Z,48.6
2018-09-14T20:23:33.371Z,48.6
2018-09-14T20:28:33.336Z,48.6
2018-09-14T20:33:33.492Z,48.6
2018-09-14T20:38:33.585Z,48.5
2018-09-14T20:43:33.527Z,48.5
2018-09-14T20:48:33.445Z,48.5
2018-09-14T20:53:33.344Z,48.5
2018-09-14T20:58:33.240Z,48.5
2018-09-14T21:03:33.088Z,48.5
2018-09-14T21:08:33.212Z,48.5
2018-09-14T21:13:33.136Z,48.5
2018-09-14T21:18:33.264Z,48.5
2018-09-14T21:23:33.133Z,48.5
2018-09-14T21:28:32.864Z,48.5
2018-09-14T21:33:32.849Z,48.5
2018-09-14T21:38:32.662Z,48.5
2018-09-14T21:43:32.833Z,48.5
2018-09-14T21:48:32.809Z,48.5
2018-09-14T21:53:32.943Z,48.5
2018-09-14T21:58:32.950Z,48.5
2018-09-14T22:03:32.668Z,48.5
2018-09-14T22:08:32.886Z,48.5
2018-09-14T22:13:32.636Z,48.4
2018-09-14T22:18:32.615Z,48.5
2018-09-14T22:23:32.395Z,48.5
2018-09-14T22:28:32.552Z,48.5
2018-09-14T22:33:32.465Z,48.5
2018-09-14T22:38:32.555Z,48.5
2018-09-14T22:43:32.452Z,48.5
2018-09-14T22:48:32.315Z,48.5
2018-09-14T22:53:32.510Z,48.5
2018-09-14T22:58:32.599Z,48.5
2018-09-14T23:03:32.633Z,48.5
2018-09-14T23:08:32.765Z,48.4
2018-09-14T23:13:32.578Z,48.5
2018-09-14T23:18:32.572Z,48.5
2018-09-14T23:23:32.513Z,48.5
2018-09-14T23:28:32.680Z,48.5
2018-09-14T23:33:32.712Z,48.5
2018-09-14T23:38:32.653Z,48.6
2018-09-14T23:43:32.556Z,48.6
2018-09-14T23:48:32.985Z,48.6
2018-09-14T23:53:33.153Z,48.6
2018-09-14T23:58:33.158Z,48.6
